createdAt,value
2022-10-29T00:01:47.151Z,21.90
2022-10-29T00:16:51.511Z,21.80
2022-10-29T00:31:55.959Z,21.80
2022-10-29T00:47:05.275Z,21.70
2022-10-29T01:02:10.549Z,21.70
2022-10-29T01:17:26.514Z,21.70
2022-10-29T01:32:37.430Z,21.60
2022-10-29T01:47:44.894Z,21.60
2022-10-29T02:03:01.514Z,21.60
2022-10-29T02:18:08.385Z,21.40
2022-10-29T02:33:14.025Z,21.40
2022-10-29T02:48:18.342Z,21.40
2022-10-29T03:03:23.274Z,21.40
2022-10-29T03:18:27.675Z,21.40
2022-10-29T03:33:32.127Z,21.40
2022-10-29T03:48:36.583Z,21.40
2022-10-29T04:03:42.330Z,21.20
2022-10-29T04:18:47.740Z,21.30
2022-10-29T04:33:53.934Z,21.20
2022-10-29T04:48:58.349Z,21.20
2022-10-29T05:04:02.886Z,21.20
2022-10-29T05:19:07.241Z,21.10
2022-10-29T05:34:11.564Z,21.10
2022-10-29T05:49:15.980Z,21.00
2022-10-29T06:04:20.471Z,21.10
2022-10-29T06:19:24.796Z,21.10
2022-10-29T06:34:29.418Z,21.10
2022-10-29T06:49:33.802Z,21.00
2022-10-29T07:04:38.163Z,21.00
2022-10-29T07:19:42.587Z,21.00
2022-10-29T07:34:47.097Z,21.10
2022-10-29T07:49:51.455Z,21.10
2022-10-29T08:04:55.831Z,21.10
2022-10-29T08:20:00.227Z,21.00
2022-10-29T08:35:05.135Z,21.20
2022-10-29T08:50:21.041Z,21.20
2022-10-29T09:05:30.449Z,21.30
2022-10-29T09:20:47.930Z,21.40
2022-10-29T09:35:55.758Z,21.70
2022-10-29T09:51:11.857Z,21.80
2022-10-29T10:06:17.931Z,21.80
2022-10-29T10:21:28.791Z,22.10
2022-10-29T10:36:33.382Z,22.20
2022-10-29T10:51:39.188Z,22.50
2022-10-29T11:06:48.086Z,22.90
2022-10-29T11:22:02.597Z,23.10
2022-10-29T11:37:17.169Z,23.10
2022-10-29T11:52:33.269Z,23.20
2022-10-29T12:08:07.159Z,23.30
2022-10-29T12:23:25.260Z,23.40
2022-10-29T12:38:41.937Z,23.50
2022-10-29T12:53:58.678Z,23.70
2022-10-29T13:09:19.796Z,23.80
2022-10-29T13:24:24.258Z,24.20
2022-10-29T13:39:31.842Z,24.10
2022-10-29T13:54:46.495Z,24.30
2022-10-29T14:09:56.346Z,24.20
2022-10-29T14:25:02.026Z,23.90
2022-10-29T14:40:14.957Z,23.90
2022-10-29T14:55:23.219Z,24.20
2022-10-29T15:10:29.507Z,24.50
2022-10-29T15:25:36.784Z,24.30
2022-10-29T15:40:54.968Z,24.30
2022-10-29T15:56:00.491Z,24.20
2022-10-29T16:11:08.145Z,24.00
2022-10-29T16:26:17.223Z,23.80
2022-10-29T16:41:22.005Z,23.60
2022-10-29T16:56:26.349Z,23.50
2022-10-29T17:11:30.672Z,23.30
2022-10-29T17:26:35.063Z,23.20
2022-10-29T17:41:39.432Z,23.10
2022-10-29T17:56:43.827Z,23.00
2022-10-29T18:11:50.112Z,22.90
2022-10-29T18:26:54.452Z,22.90
2022-10-29T18:41:59.431Z,22.80
2022-10-29T18:57:03.770Z,22.80
2022-10-29T19:12:08.606Z,22.70
2022-10-29T19:27:12.940Z,22.60
2022-10-29T19:42:18.710Z,22.60
2022-10-29T19:57:23.094Z,22.50
2022-10-29T20:12:27.466Z,22.40
2022-10-29T20:27:31.815Z,22.40
2022-10-29T20:42:36.407Z,22.10
2022-10-29T20:57:40.719Z,22.20
2022-10-29T21:12:44.999Z,22.10
2022-10-29T21:27:50.647Z,22.10
2022-10-29T21:42:55.433Z,21.60
2022-10-29T21:58:00.388Z,21.50
2022-10-29T22:13:05.650Z,21.30
2022-10-29T22:28:10.575Z,21.70
2022-10-29T22:43:15.907Z,21.30
2022-10-29T22:58:20.461Z,21.40
2022-10-29T23:13:24.857Z,21.40
2022-10-29T23:28:29.786Z,21.50
2022-10-29T23:43:34.327Z,21.40
2022-10-29T23:58:38.682Z,21.40
